sensor_id;sensor_type;location;lat;lon;timestamp;temperature;humidity
11639;DHT22;5875;35.940;126.892;2023-09-07T00:02:00;32.40;99.90
11639;DHT22;5875;35.940;126.892;2023-09-07T00:04:28;32.70;99.90
11639;DHT22;5875;35.940;126.892;2023-09-07T00:06:55;32.80;99.90
11639;DHT22;5875;35.940;126.892;2023-09-07T00:09:22;32.90;99.90
11639;DHT22;5875;35.940;126.892;2023-09-07T00:35:36;33.50;99.90
11639;DHT22;5875;35.940;126.892;2023-09-07T00:38:03;35.40;99.90
11639;DHT22;5875;35.940;126.892;2023-09-07T00:40:31;35.50;99.90
11639;DHT22;5875;35.940;126.892;2023-09-07T00:42:59;35.50;99.90
11639;DHT22;5875;35.940;126.892;2023-09-07T00:45:26;35.90;99.90
11639;DHT22;5875;35.940;126.892;2023-09-07T00:47:54;35.90;99.90
11639;DHT22;5875;35.940;126.892;2023-09-07T00:50:21;35.90;99.90
11639;DHT22;5875;35.940;126.892;2023-09-07T00:52:48;35.70;99.90
11639;DHT22;5875;35.940;126.892;2023-09-07T00:55:16;35.60;99.90
11639;DHT22;5875;35.940;126.892;2023-09-07T00:57:43;35.80;99.90
11639;DHT22;5875;35.940;126.892;2023-09-07T01:00:11;35.70;99.90
11639;DHT22;5875;35.940;126.892;2023-09-07T01:02:38;35.70;99.90
11639;DHT22;5875;35.940;126.892;2023-09-07T01:05:06;35.90;99.90
11639;DHT22;5875;35.940;126.892;2023-09-07T01:07:43;35.90;99.90
11639;DHT22;5875;35.940;126.892;2023-09-07T01:10:11;35.50;99.90
11639;DHT22;5875;35.940;126.892;2023-09-07T01:12:42;35.30;99.90
11639;DHT22;5875;35.940;126.892;2023-09-07T01:15:10;34.80;99.90
11639;DHT22;5875;35.940;126.892;2023-09-07T01:17:37;34.80;99.90
11639;DHT22;5875;35.940;126.892;2023-09-07T01:20:05;35.10;99.90
11639;DHT22;5875;35.940;126.892;2023-09-07T01:22:36;35.10;99.90
11639;DHT22;5875;35.940;126.892;2023-09-07T01:25:05;35.00;99.90
11639;DHT22;5875;35.940;126.892;2023-09-07T01:27:34;35.10;97.70
11639;DHT22;5875;35.940;126.892;2023-09-07T01:30:02;35.40;92.50
11639;DHT22;5875;35.940;126.892;2023-09-07T01:32:29;35.40;82.90
11639;DHT22;5875;35.940;126.892;2023-09-07T01:34:58;35.30;68.50
11639;DHT22;5875;35.940;126.892;2023-09-07T01:37:26;35.40;68.00
11639;DHT22;5875;35.940;126.892;2023-09-07T01:39:53;35.40;54.10
11639;DHT22;5875;35.940;126.892;2023-09-07T01:42:20;35.50;52.70
11639;DHT22;5875;35.940;126.892;2023-09-07T01:44:48;35.70;48.60
11639;DHT22;5875;35.940;126.892;2023-09-07T01:47:15;35.90;35.50
11639;DHT22;5875;35.940;126.892;2023-09-07T01:49:42;35.80;37.20
11639;DHT22;5875;35.940;126.892;2023-09-07T01:52:09;36.10;35.90
11639;DHT22;5875;35.940;126.892;2023-09-07T01:54:37;36.10;29.40
11639;DHT22;5875;35.940;126.892;2023-09-07T01:57:04;36.10;24.20
11639;DHT22;5875;35.940;126.892;2023-09-07T01:59:31;36.10;19.40
11639;DHT22;5875;35.940;126.892;2023-09-07T02:01:58;36.20;21.40
11639;DHT22;5875;35.940;126.892;2023-09-07T02:04:25;36.00;16.30
11639;DHT22;5875;35.940;126.892;2023-09-07T02:06:52;35.60;13.00
11639;DHT22;5875;35.940;126.892;2023-09-07T02:09:20;35.40;12.20
11639;DHT22;5875;35.940;126.892;2023-09-07T02:11:47;35.30;9.90
11639;DHT22;5875;35.940;126.892;2023-09-07T02:14:15;35.40;7.40
11639;DHT22;5875;35.940;126.892;2023-09-07T02:16:42;35.30;5.00
11639;DHT22;5875;35.940;126.892;2023-09-07T02:19:12;35.20;4.10
11639;DHT22;5875;35.940;126.892;2023-09-07T02:21:39;35.40;5.20
11639;DHT22;5875;35.940;126.892;2023-09-07T02:24:07;35.60;5.30
11639;DHT22;5875;35.940;126.892;2023-09-07T02:26:34;35.60;6.40
11639;DHT22;5875;35.940;126.892;2023-09-07T02:29:01;35.80;8.60
11639;DHT22;5875;35.940;126.892;2023-09-07T02:31:31;35.80;1.00
11639;DHT22;5875;35.940;126.892;2023-09-07T02:33:59;35.90;4.50
11639;DHT22;5875;35.940;126.892;2023-09-07T02:36:26;35.70;2.20
11639;DHT22;5875;35.940;126.892;2023-09-07T02:38:53;35.70;1.00
11639;DHT22;5875;35.940;126.892;2023-09-07T02:41:20;35.70;1.00
11639;DHT22;5875;35.940;126.892;2023-09-07T02:43:47;36.00;1.00
11639;DHT22;5875;35.940;126.892;2023-09-07T02:46:14;36.20;1.00
11639;DHT22;5875;35.940;126.892;2023-09-07T02:48:42;36.30;1.00
11639;DHT22;5875;35.940;126.892;2023-09-07T02:51:09;36.40;1.00
11639;DHT22;5875;35.940;126.892;2023-09-07T02:53:36;36.20;1.00
11639;DHT22;5875;35.940;126.892;2023-09-07T02:56:04;36.20;1.00
11639;DHT22;5875;35.940;126.892;2023-09-07T02:58:31;36.00;1.00
11639;DHT22;5875;35.940;126.892;2023-09-07T03:00:59;36.00;1.00
11639;DHT22;5875;35.940;126.892;2023-09-07T03:03:26;35.90;1.00
11639;DHT22;5875;35.940;126.892;2023-09-07T03:05:53;36.00;1.00
11639;DHT22;5875;35.940;126.892;2023-09-07T03:08:21;36.20;1.00
11639;DHT22;5875;35.940;126.892;2023-09-07T03:10:48;36.30;1.00
11639;DHT22;5875;35.940;126.892;2023-09-07T03:13:15;36.40;1.00
11639;DHT22;5875;35.940;126.892;2023-09-07T03:15:42;36.50;1.00
11639;DHT22;5875;35.940;126.892;2023-09-07T03:18:09;36.50;1.00
11639;DHT22;5875;35.940;126.892;2023-09-07T03:20:36;36.40;1.00
11639;DHT22;5875;35.940;126.892;2023-09-07T03:23:04;36.30;1.00
11639;DHT22;5875;35.940;126.892;2023-09-07T03:25:32;36.10;1.00
11639;DHT22;5875;35.940;126.892;2023-09-07T03:27:59;36.20;1.00
11639;DHT22;5875;35.940;126.892;2023-09-07T03:30:26;36.00;1.00
11639;DHT22;5875;35.940;126.892;2023-09-07T03:32:53;36.00;1.00
11639;DHT22;5875;35.940;126.892;2023-09-07T03:35:21;35.80;1.00
11639;DHT22;5875;35.940;126.892;2023-09-07T03:37:48;35.90;1.00
11639;DHT22;5875;35.940;126.892;2023-09-07T03:40:15;35.90;1.00
11639;DHT22;5875;35.940;126.892;2023-09-07T03:42:42;36.00;1.00
11639;DHT22;5875;35.940;126.892;2023-09-07T03:45:12;36.20;1.00
11639;DHT22;5875;35.940;126.892;2023-09-07T03:47:39;36.20;1.00
11639;DHT22;5875;35.940;126.892;2023-09-07T03:50:06;36.20;1.00
11639;DHT22;5875;35.940;126.892;2023-09-07T03:52:34;36.30;1.00
11639;DHT22;5875;35.940;126.892;2023-09-07T03:55:01;36.20;1.00
11639;DHT22;5875;35.940;126.892;2023-09-07T03:57:28;36.20;1.00
11639;DHT22;5875;35.940;126.892;2023-09-07T03:59:57;36.10;1.00
11639;DHT22;5875;35.940;126.892;2023-09-07T04:02:24;36.10;1.00
11639;DHT22;5875;35.940;126.892;2023-09-07T04:04:53;36.00;1.00
11639;DHT22;5875;35.940;126.892;2023-09-07T04:07:20;35.90;1.00
11639;DHT22;5875;35.940;126.892;2023-09-07T04:09:48;35.80;1.00
11639;DHT22;5875;35.940;126.892;2023-09-07T04:12:15;35.90;1.00
11639;DHT22;5875;35.940;126.892;2023-09-07T04:14:42;35.90;1.00
11639;DHT22;5875;35.940;126.892;2023-09-07T04:17:11;35.80;1.00
11639;DHT22;5875;35.940;126.892;2023-09-07T04:19:38;35.70;1.00
11639;DHT22;5875;35.940;126.892;2023-09-07T04:22:05;35.60;1.00
11639;DHT22;5875;35.940;126.892;2023-09-07T04:24:32;35.60;3.80
11639;DHT22;5875;35.940;126.892;2023-09-07T04:27:00;35.70;3.80
11639;DHT22;5875;35.940;126.892;2023-09-07T04:29:28;35.70;1.00
11639;DHT22;5875;35.940;126.892;2023-09-07T04:31:55;35.50;1.00
11639;DHT22;5875;35.940;126.892;2023-09-07T04:34:23;35.50;1.00
11639;DHT22;5875;35.940;126.892;2023-09-07T04:36:50;35.40;1.00
11639;DHT22;5875;35.940;126.892;2023-09-07T04:39:17;35.30;1.00
11639;DHT22;5875;35.940;126.892;2023-09-07T04:41:45;35.30;5.30
11639;DHT22;5875;35.940;126.892;2023-09-07T04:44:12;35.30;6.60
11639;DHT22;5875;35.940;126.892;2023-09-07T04:46:39;35.20;6.20
11639;DHT22;5875;35.940;126.892;2023-09-07T04:49:06;35.20;8.70
11639;DHT22;5875;35.940;126.892;2023-09-07T04:51:34;35.10;4.90
11639;DHT22;5875;35.940;126.892;2023-09-07T04:54:01;35.20;6.20
11639;DHT22;5875;35.940;126.892;2023-09-07T04:56:28;35.00;5.30
11639;DHT22;5875;35.940;126.892;2023-09-07T04:58:56;35.10;6.90
11639;DHT22;5875;35.940;126.892;2023-09-07T05:01:23;35.00;9.50
11639;DHT22;5875;35.940;126.892;2023-09-07T05:03:50;35.00;11.40
11639;DHT22;5875;35.940;126.892;2023-09-07T05:06:18;35.00;4.30
11639;DHT22;5875;35.940;126.892;2023-09-07T05:08:45;34.90;5.30
11639;DHT22;5875;35.940;126.892;2023-09-07T05:11:12;34.80;5.80
11639;DHT22;5875;35.940;126.892;2023-09-07T05:13:39;34.80;6.40
11639;DHT22;5875;35.940;126.892;2023-09-07T05:16:06;34.70;10.50
11639;DHT22;5875;35.940;126.892;2023-09-07T05:18:34;34.60;11.00
11639;DHT22;5875;35.940;126.892;2023-09-07T05:21:01;34.60;15.20
11639;DHT22;5875;35.940;126.892;2023-09-07T05:23:37;34.60;11.50
11639;DHT22;5875;35.940;126.892;2023-09-07T05:26:04;34.50;5.70
11639;DHT22;5875;35.940;126.892;2023-09-07T05:28:31;34.50;6.00
11639;DHT22;5875;35.940;126.892;2023-09-07T05:30:58;34.50;1.00
11639;DHT22;5875;35.940;126.892;2023-09-07T05:33:25;34.50;11.20
11639;DHT22;5875;35.940;126.892;2023-09-07T05:35:53;34.40;9.50
11639;DHT22;5875;35.940;126.892;2023-09-07T05:38:20;34.40;7.30
11639;DHT22;5875;35.940;126.892;2023-09-07T05:40:48;34.40;12.40
11639;DHT22;5875;35.940;126.892;2023-09-07T05:43:16;34.50;15.30
11639;DHT22;5875;35.940;126.892;2023-09-07T05:45:43;34.40;11.30
11639;DHT22;5875;35.940;126.892;2023-09-07T05:48:11;34.50;8.30
11639;DHT22;5875;35.940;126.892;2023-09-07T05:50:40;34.50;8.90
11639;DHT22;5875;35.940;126.892;2023-09-07T05:53:07;34.40;6.30
11639;DHT22;5875;35.940;126.892;2023-09-07T05:55:34;34.30;5.90
11639;DHT22;5875;35.940;126.892;2023-09-07T05:58:05;34.40;8.30
11639;DHT22;5875;35.940;126.892;2023-09-07T06:00:34;34.40;2.30
11639;DHT22;5875;35.940;126.892;2023-09-07T06:03:02;34.10;2.00
11639;DHT22;5875;35.940;126.892;2023-09-07T06:05:29;33.90;2.70
11639;DHT22;5875;35.940;126.892;2023-09-07T06:07:56;33.80;2.00
11639;DHT22;5875;35.940;126.892;2023-09-07T06:10:24;33.80;1.00
11639;DHT22;5875;35.940;126.892;2023-09-07T06:12:51;33.80;5.30
11639;DHT22;5875;35.940;126.892;2023-09-07T06:15:18;33.80;1.10
11639;DHT22;5875;35.940;126.892;2023-09-07T06:17:45;33.80;6.60
11639;DHT22;5875;35.940;126.892;2023-09-07T06:20:12;33.80;7.20
11639;DHT22;5875;35.940;126.892;2023-09-07T06:22:39;33.80;4.30
11639;DHT22;5875;35.940;126.892;2023-09-07T06:25:07;33.60;1.00
11639;DHT22;5875;35.940;126.892;2023-09-07T06:27:34;33.60;4.20
11639;DHT22;5875;35.940;126.892;2023-09-07T06:30:01;33.50;2.70
11639;DHT22;5875;35.940;126.892;2023-09-07T06:32:29;33.50;4.20
11639;DHT22;5875;35.940;126.892;2023-09-07T06:34:56;33.50;2.60
11639;DHT22;5875;35.940;126.892;2023-09-07T06:39:51;33.40;6.40
11639;DHT22;5875;35.940;126.892;2023-09-07T06:42:18;33.30;2.20
11639;DHT22;5875;35.940;126.892;2023-09-07T06:44:45;33.30;2.00
11639;DHT22;5875;35.940;126.892;2023-09-07T06:47:13;33.20;1.30
11639;DHT22;5875;35.940;126.892;2023-09-07T06:49:40;33.10;1.00
11639;DHT22;5875;35.940;126.892;2023-09-07T07:06:53;33.10;5.50
11639;DHT22;5875;35.940;126.892;2023-09-07T07:09:20;32.90;6.80
11639;DHT22;5875;35.940;126.892;2023-09-07T07:11:47;32.80;6.20
11639;DHT22;5875;35.940;126.892;2023-09-07T07:14:15;32.80;4.10
11639;DHT22;5875;35.940;126.892;2023-09-07T07:16:42;32.60;7.80
11639;DHT22;5875;35.940;126.892;2023-09-07T07:19:09;32.60;6.50
11639;DHT22;5875;35.940;126.892;2023-09-07T07:21:37;32.50;7.80
11639;DHT22;5875;35.940;126.892;2023-09-07T07:24:04;32.40;9.40
11639;DHT22;5875;35.940;126.892;2023-09-07T07:26:34;32.30;9.40
11639;DHT22;5875;35.940;126.892;2023-09-07T07:29:01;32.20;9.70
11639;DHT22;5875;35.940;126.892;2023-09-07T07:31:29;32.20;13.30
11639;DHT22;5875;35.940;126.892;2023-09-07T07:33:56;32.10;12.70
11639;DHT22;5875;35.940;126.892;2023-09-07T07:36:24;32.10;13.80
11639;DHT22;5875;35.940;126.892;2023-09-07T07:38:52;32.10;13.60
11639;DHT22;5875;35.940;126.892;2023-09-07T07:41:19;32.00;17.30
11639;DHT22;5875;35.940;126.892;2023-09-07T07:43:46;32.00;21.80
11639;DHT22;5875;35.940;126.892;2023-09-07T07:46:13;32.00;22.00
11639;DHT22;5875;35.940;126.892;2023-09-07T07:48:46;31.80;20.00
11639;DHT22;5875;35.940;126.892;2023-09-07T07:51:13;31.70;22.50
11639;DHT22;5875;35.940;126.892;2023-09-07T07:53:41;31.70;24.70
11639;DHT22;5875;35.940;126.892;2023-09-07T07:56:18;31.60;23.00
11639;DHT22;5875;35.940;126.892;2023-09-07T07:58:45;31.50;19.10
11639;DHT22;5875;35.940;126.892;2023-09-07T08:01:16;31.40;19.30
11639;DHT22;5875;35.940;126.892;2023-09-07T08:03:44;31.40;25.70
11639;DHT22;5875;35.940;126.892;2023-09-07T08:06:11;31.30;28.80
11639;DHT22;5875;35.940;126.892;2023-09-07T08:08:41;31.20;27.70
11639;DHT22;5875;35.940;126.892;2023-09-07T08:11:09;31.10;29.40
11639;DHT22;5875;35.940;126.892;2023-09-07T08:13:36;31.00;29.20
11639;DHT22;5875;35.940;126.892;2023-09-07T08:16:04;30.90;31.70
11639;DHT22;5875;35.940;126.892;2023-09-07T08:18:33;30.80;35.70
11639;DHT22;5875;35.940;126.892;2023-09-07T08:21:01;30.70;34.70
11639;DHT22;5875;35.940;126.892;2023-09-07T08:23:28;30.70;35.00
11639;DHT22;5875;35.940;126.892;2023-09-07T08:25:55;30.50;36.50
11639;DHT22;5875;35.940;126.892;2023-09-07T08:28:22;30.50;35.30
11639;DHT22;5875;35.940;126.892;2023-09-07T08:30:50;30.40;35.90
11639;DHT22;5875;35.940;126.892;2023-09-07T08:33:22;30.30;40.70
11639;DHT22;5875;35.940;126.892;2023-09-07T08:35:59;30.20;45.30
11639;DHT22;5875;35.940;126.892;2023-09-07T08:38:27;30.20;44.70
11639;DHT22;5875;35.940;126.892;2023-09-07T08:41:01;30.10;50.70
11639;DHT22;5875;35.940;126.892;2023-09-07T08:43:33;30.10;50.00
11639;DHT22;5875;35.940;126.892;2023-09-07T08:48:42;29.90;51.90
11639;DHT22;5875;35.940;126.892;2023-09-07T08:51:10;29.80;53.60
11639;DHT22;5875;35.940;126.892;2023-09-07T08:53:40;29.80;57.80
11639;DHT22;5875;35.940;126.892;2023-09-07T08:56:07;29.80;61.90
11639;DHT22;5875;35.940;126.892;2023-09-07T08:58:38;29.70;67.70
11639;DHT22;5875;35.940;126.892;2023-09-07T09:01:06;29.60;70.10
11639;DHT22;5875;35.940;126.892;2023-09-07T09:03:35;29.50;75.30
11639;DHT22;5875;35.940;126.892;2023-09-07T09:06:03;29.40;79.50
11639;DHT22;5875;35.940;126.892;2023-09-07T09:08:47;29.40;85.70
11639;DHT22;5875;35.940;126.892;2023-09-07T09:11:18;29.40;91.50
11639;DHT22;5875;35.940;126.892;2023-09-07T09:13:46;29.30;91.90
11639;DHT22;5875;35.940;126.892;2023-09-07T09:16:14;29.30;92.30
11639;DHT22;5875;35.940;126.892;2023-09-07T09:18:56;29.20;92.10
11639;DHT22;5875;35.940;126.892;2023-09-07T09:21:25;29.10;92.10
11639;DHT22;5875;35.940;126.892;2023-09-07T09:23:53;28.90;91.20
11639;DHT22;5875;35.940;126.892;2023-09-07T09:26:21;28.90;90.80
11639;DHT22;5875;35.940;126.892;2023-09-07T09:28:50;28.70;91.40
11639;DHT22;5875;35.940;126.892;2023-09-07T09:31:20;28.70;91.70
11639;DHT22;5875;35.940;126.892;2023-09-07T09:33:50;28.50;93.80
11639;DHT22;5875;35.940;126.892;2023-09-07T09:36:21;28.50;96.30
11639;DHT22;5875;35.940;126.892;2023-09-07T09:38:52;28.40;98.50
11639;DHT22;5875;35.940;126.892;2023-09-07T09:41:20;28.30;99.90
11639;DHT22;5875;35.940;126.892;2023-09-07T09:43:48;28.30;99.90
11639;DHT22;5875;35.940;126.892;2023-09-07T09:46:20;28.10;99.90
11639;DHT22;5875;35.940;126.892;2023-09-07T09:48:49;28.10;99.90
11639;DHT22;5875;35.940;126.892;2023-09-07T09:51:17;28.10;99.90
11639;DHT22;5875;35.940;126.892;2023-09-07T09:53:45;28.10;99.90
11639;DHT22;5875;35.940;126.892;2023-09-07T09:56:12;28.00;99.90
11639;DHT22;5875;35.940;126.892;2023-09-07T09:58:39;27.90;99.90
11639;DHT22;5875;35.940;126.892;2023-09-07T10:01:08;27.90;99.90
11639;DHT22;5875;35.940;126.892;2023-09-07T10:03:42;27.80;99.90
11639;DHT22;5875;35.940;126.892;2023-09-07T10:06:25;27.80;99.90
11639;DHT22;5875;35.940;126.892;2023-09-07T10:09:04;27.80;99.90
11639;DHT22;5875;35.940;126.892;2023-09-07T10:11:38;27.70;99.90
11639;DHT22;5875;35.940;126.892;2023-09-07T10:14:06;27.60;99.90
11639;DHT22;5875;35.940;126.892;2023-09-07T10:16:51;27.60;99.90
11639;DHT22;5875;35.940;126.892;2023-09-07T10:19:24;27.60;99.90
11639;DHT22;5875;35.940;126.892;2023-09-07T10:21:54;27.50;99.90
11639;DHT22;5875;35.940;126.892;2023-09-07T10:24:32;27.40;99.90
11639;DHT22;5875;35.940;126.892;2023-09-07T10:27:09;27.30;99.90
11639;DHT22;5875;35.940;126.892;2023-09-07T10:29:49;27.30;99.90
11639;DHT22;5875;35.940;126.892;2023-09-07T10:32:19;27.30;99.90
11639;DHT22;5875;35.940;126.892;2023-09-07T10:34:46;27.30;99.90
11639;DHT22;5875;35.940;126.892;2023-09-07T10:37:14;27.30;99.90
11639;DHT22;5875;35.940;126.892;2023-09-07T10:39:43;27.30;99.90
11639;DHT22;5875;35.940;126.892;2023-09-07T10:42:23;27.20;99.90
11639;DHT22;5875;35.940;126.892;2023-09-07T10:44:51;27.20;99.90
11639;DHT22;5875;35.940;126.892;2023-09-07T10:47:19;27.30;99.90
11639;DHT22;5875;35.940;126.892;2023-09-07T10:49:46;27.30;99.90
11639;DHT22;5875;35.940;126.892;2023-09-07T10:52:13;27.20;99.90
11639;DHT22;5875;35.940;126.892;2023-09-07T10:54:40;27.10;99.90
11639;DHT22;5875;35.940;126.892;2023-09-07T10:57:13;27.10;99.90
11639;DHT22;5875;35.940;126.892;2023-09-07T10:59:47;27.00;99.90
11639;DHT22;5875;35.940;126.892;2023-09-07T11:02:15;27.00;99.90
11639;DHT22;5875;35.940;126.892;2023-09-07T11:04:42;27.00;99.90
11639;DHT22;5875;35.940;126.892;2023-09-07T11:07:10;26.90;99.90
11639;DHT22;5875;35.940;126.892;2023-09-07T11:09:43;26.90;99.90
11639;DHT22;5875;35.940;126.892;2023-09-07T11:12:14;26.90;99.90
11639;DHT22;5875;35.940;126.892;2023-09-07T11:14:54;26.80;99.90
11639;DHT22;5875;35.940;126.892;2023-09-07T11:17:26;26.90;99.90
11639;DHT22;5875;35.940;126.892;2023-09-07T11:19:56;26.80;99.90
11639;DHT22;5875;35.940;126.892;2023-09-07T11:22:24;26.90;99.90
11639;DHT22;5875;35.940;126.892;2023-09-07T11:24:51;26.90;99.90
11639;DHT22;5875;35.940;126.892;2023-09-07T11:27:18;26.70;99.90
11639;DHT22;5875;35.940;126.892;2023-09-07T11:29:56;26.70;99.90
11639;DHT22;5875;35.940;126.892;2023-09-07T11:32:24;26.70;99.90
11639;DHT22;5875;35.940;126.892;2023-09-07T11:34:52;26.50;99.90
11639;DHT22;5875;35.940;126.892;2023-09-07T11:37:24;26.50;99.90
11639;DHT22;5875;35.940;126.892;2023-09-07T11:39:52;26.50;99.90
11639;DHT22;5875;35.940;126.892;2023-09-07T11:42:19;26.30;99.90
11639;DHT22;5875;35.940;126.892;2023-09-07T11:44:46;26.20;99.90
11639;DHT22;5875;35.940;126.892;2023-09-07T11:47:13;26.20;99.90
11639;DHT22;5875;35.940;126.892;2023-09-07T11:49:41;26.20;99.90
11639;DHT22;5875;35.940;126.892;2023-09-07T11:52:08;26.10;99.90
11639;DHT22;5875;35.940;126.892;2023-09-07T11:54:35;26.10;99.90
11639;DHT22;5875;35.940;126.892;2023-09-07T11:57:03;26.10;99.90
11639;DHT22;5875;35.940;126.892;2023-09-07T11:59:31;26.20;99.90
11639;DHT22;5875;35.940;126.892;2023-09-07T12:01:59;26.30;99.90
11639;DHT22;5875;35.940;126.892;2023-09-07T12:04:26;26.30;99.90
11639;DHT22;5875;35.940;126.892;2023-09-07T12:06:53;26.30;99.90
11639;DHT22;5875;35.940;126.892;2023-09-07T12:09:20;26.30;99.90
11639;DHT22;5875;35.940;126.892;2023-09-07T12:11:47;26.20;99.90
11639;DHT22;5875;35.940;126.892;2023-09-07T12:14:14;26.10;99.90
11639;DHT22;5875;35.940;126.892;2023-09-07T12:16:42;26.10;99.90
11639;DHT22;5875;35.940;126.892;2023-09-07T12:19:09;26.00;99.90
11639;DHT22;5875;35.940;126.892;2023-09-07T12:21:36;26.00;99.90
11639;DHT22;5875;35.940;126.892;2023-09-07T12:24:03;25.90;99.90
11639;DHT22;5875;35.940;126.892;2023-09-07T12:26:32;25.90;99.90
11639;DHT22;5875;35.940;126.892;2023-09-07T12:28:59;26.00;99.90
11639;DHT22;5875;35.940;126.892;2023-09-07T12:31:26;25.90;99.90
11639;DHT22;5875;35.940;126.892;2023-09-07T12:33:53;25.90;99.90
11639;DHT22;5875;35.940;126.892;2023-09-07T12:36:21;25.90;99.90
11639;DHT22;5875;35.940;126.892;2023-09-07T12:38:48;25.90;99.90
11639;DHT22;5875;35.940;126.892;2023-09-07T12:41:15;25.90;99.90
11639;DHT22;5875;35.940;126.892;2023-09-07T12:43:43;25.90;99.90
11639;DHT22;5875;35.940;126.892;2023-09-07T12:46:10;25.80;99.90
11639;DHT22;5875;35.940;126.892;2023-09-07T12:48:37;25.80;99.90
11639;DHT22;5875;35.940;126.892;2023-09-07T12:51:04;25.70;99.90
11639;DHT22;5875;35.940;126.892;2023-09-07T12:53:31;25.70;99.90
11639;DHT22;5875;35.940;126.892;2023-09-07T12:55:59;25.70;99.90
11639;DHT22;5875;35.940;126.892;2023-09-07T12:58:27;25.70;99.90
11639;DHT22;5875;35.940;126.892;2023-09-07T13:00:55;25.60;99.90
11639;DHT22;5875;35.940;126.892;2023-09-07T13:03:22;25.60;99.90
11639;DHT22;5875;35.940;126.892;2023-09-07T13:05:49;25.50;99.90
11639;DHT22;5875;35.940;126.892;2023-09-07T13:08:16;25.60;99.90
11639;DHT22;5875;35.940;126.892;2023-09-07T13:10:43;25.40;99.90
11639;DHT22;5875;35.940;126.892;2023-09-07T13:13:10;25.10;99.90
11639;DHT22;5875;35.940;126.892;2023-09-07T13:15:38;24.50;99.90
11639;DHT22;5875;35.940;126.892;2023-09-07T13:18:05;24.30;99.90
11639;DHT22;5875;35.940;126.892;2023-09-07T13:20:32;24.30;99.90
11639;DHT22;5875;35.940;126.892;2023-09-07T13:22:59;24.40;99.90
11639;DHT22;5875;35.940;126.892;2023-09-07T13:25:26;24.50;99.90
11639;DHT22;5875;35.940;126.892;2023-09-07T13:27:54;24.80;99.90
11639;DHT22;5875;35.940;126.892;2023-09-07T13:30:21;24.90;99.90
11639;DHT22;5875;35.940;126.892;2023-09-07T13:32:48;25.10;99.90
11639;DHT22;5875;35.940;126.892;2023-09-07T13:35:16;25.10;99.90
11639;DHT22;5875;35.940;126.892;2023-09-07T13:37:43;25.30;99.90
11639;DHT22;5875;35.940;126.892;2023-09-07T13:40:11;25.40;99.90
11639;DHT22;5875;35.940;126.892;2023-09-07T13:42:39;25.20;99.90
11639;DHT22;5875;35.940;126.892;2023-09-07T13:45:07;24.80;99.90
11639;DHT22;5875;35.940;126.892;2023-09-07T13:47:34;24.80;99.90
11639;DHT22;5875;35.940;126.892;2023-09-07T13:50:02;25.00;99.90
11639;DHT22;5875;35.940;126.892;2023-09-07T13:52:29;25.10;99.90
11639;DHT22;5875;35.940;126.892;2023-09-07T13:54:56;25.30;99.90
11639;DHT22;5875;35.940;126.892;2023-09-07T13:57:23;25.10;99.90
11639;DHT22;5875;35.940;126.892;2023-09-07T13:59:50;25.20;99.90
11639;DHT22;5875;35.940;126.892;2023-09-07T14:02:18;25.30;99.90
11639;DHT22;5875;35.940;126.892;2023-09-07T14:04:45;25.20;99.90
11639;DHT22;5875;35.940;126.892;2023-09-07T14:07:12;24.90;99.90
11639;DHT22;5875;35.940;126.892;2023-09-07T14:09:39;24.30;99.90
11639;DHT22;5875;35.940;126.892;2023-09-07T14:12:06;24.30;99.90
11639;DHT22;5875;35.940;126.892;2023-09-07T14:14:34;24.60;99.90
11639;DHT22;5875;35.940;126.892;2023-09-07T14:17:01;24.80;99.90
11639;DHT22;5875;35.940;126.892;2023-09-07T14:19:28;24.90;99.90
11639;DHT22;5875;35.940;126.892;2023-09-07T14:21:58;25.10;99.90
11639;DHT22;5875;35.940;126.892;2023-09-07T14:24:26;25.30;99.90
11639;DHT22;5875;35.940;126.892;2023-09-07T14:26:53;25.50;99.90
11639;DHT22;5875;35.940;126.892;2023-09-07T14:29:20;25.40;99.90
11639;DHT22;5875;35.940;126.892;2023-09-07T14:31:48;25.40;99.90
11639;DHT22;5875;35.940;126.892;2023-09-07T14:34:15;25.40;99.90
11639;DHT22;5875;35.940;126.892;2023-09-07T14:36:42;25.40;99.90
11639;DHT22;5875;35.940;126.892;2023-09-07T14:39:09;25.40;99.90
11639;DHT22;5875;35.940;126.892;2023-09-07T14:41:36;25.40;99.90
11639;DHT22;5875;35.940;126.892;2023-09-07T14:44:04;25.40;99.90
11639;DHT22;5875;35.940;126.892;2023-09-07T14:46:31;25.50;99.90
11639;DHT22;5875;35.940;126.892;2023-09-07T14:48:59;25.50;99.90
11639;DHT22;5875;35.940;126.892;2023-09-07T14:51:28;25.40;99.90
11639;DHT22;5875;35.940;126.892;2023-09-07T14:53:55;25.40;99.90
11639;DHT22;5875;35.940;126.892;2023-09-07T14:56:22;25.40;99.90
11639;DHT22;5875;35.940;126.892;2023-09-07T14:58:49;25.50;99.90
11639;DHT22;5875;35.940;126.892;2023-09-07T15:01:16;25.50;99.90
11639;DHT22;5875;35.940;126.892;2023-09-07T15:03:44;25.30;99.90
11639;DHT22;5875;35.940;126.892;2023-09-07T15:06:11;25.30;99.90
11639;DHT22;5875;35.940;126.892;2023-09-07T15:08:39;25.30;99.90
11639;DHT22;5875;35.940;126.892;2023-09-07T15:11:06;25.30;99.90
11639;DHT22;5875;35.940;126.892;2023-09-07T15:13:34;25.20;99.90
11639;DHT22;5875;35.940;126.892;2023-09-07T15:16:01;25.10;99.90
11639;DHT22;5875;35.940;126.892;2023-09-07T15:18:28;25.00;99.90
11639;DHT22;5875;35.940;126.892;2023-09-07T15:20:55;24.90;99.90
11639;DHT22;5875;35.940;126.892;2023-09-07T15:23:23;24.80;99.90
11639;DHT22;5875;35.940;126.892;2023-09-07T15:25:50;24.80;99.90
11639;DHT22;5875;35.940;126.892;2023-09-07T15:28:20;24.70;99.90
11639;DHT22;5875;35.940;126.892;2023-09-07T15:30:47;24.60;99.90
11639;DHT22;5875;35.940;126.892;2023-09-07T15:33:14;24.50;99.90
11639;DHT22;5875;35.940;126.892;2023-09-07T15:35:41;24.50;99.90
11639;DHT22;5875;35.940;126.892;2023-09-07T15:38:08;24.30;99.90
11639;DHT22;5875;35.940;126.892;2023-09-07T15:40:36;24.30;99.90
11639;DHT22;5875;35.940;126.892;2023-09-07T15:43:05;24.10;99.90
11639;DHT22;5875;35.940;126.892;2023-09-07T15:45:32;24.10;99.90
11639;DHT22;5875;35.940;126.892;2023-09-07T15:48:01;24.10;99.90
11639;DHT22;5875;35.940;126.892;2023-09-07T15:50:28;24.00;99.90
11639;DHT22;5875;35.940;126.892;2023-09-07T15:52:56;24.10;99.90
11639;DHT22;5875;35.940;126.892;2023-09-07T15:55:23;24.10;99.90
11639;DHT22;5875;35.940;126.892;2023-09-07T15:57:50;24.10;99.90
11639;DHT22;5875;35.940;126.892;2023-09-07T16:00:17;23.90;99.90
11639;DHT22;5875;35.940;126.892;2023-09-07T16:02:45;23.90;99.90
11639;DHT22;5875;35.940;126.892;2023-09-07T16:05:12;23.80;99.90
11639;DHT22;5875;35.940;126.892;2023-09-07T16:07:39;23.80;99.90
11639;DHT22;5875;35.940;126.892;2023-09-07T16:10:06;23.70;99.90